createdAt,value
2018-07-07T00:00:05.577Z,1009.39
2018-07-07T00:01:05.563Z,1009.40
2018-07-07T00:02:05.581Z,1009.41
2018-07-07T00:03:05.591Z,1009.43
2018-07-07T00:04:05.560Z,1009.44
2018-07-07T00:05:05.520Z,1009.44
2018-07-07T00:06:05.512Z,1009.38
2018-07-07T00:07:05.501Z,1009.41
2018-07-07T00:08:05.491Z,1009.42
2018-07-07T00:09:05.492Z,1009.45
2018-07-07T00:10:05.484Z,1009.44
2018-07-07T00:11:05.468Z,1009.49
2018-07-07T00:12:05.468Z,1009.50
2018-07-07T00:13:05.456Z,1009.45
2018-07-07T00:14:05.465Z,1009.49
2018-07-07T00:15:05.462Z,1009.46
2018-07-07T00:16:05.443Z,1009.49
2018-07-07T00:17:05.393Z,1009.49
2018-07-07T00:18:05.380Z,1009.50
2018-07-07T00:19:05.369Z,1009.51
2018-07-07T00:20:05.357Z,1009.50
2018-07-07T00:21:05.349Z,1009.48
2018-07-07T00:22:05.347Z,1009.48
2018-07-07T00:23:05.389Z,1009.48
2018-07-07T00:24:05.316Z,1009.49
2018-07-07T00:25:05.325Z,1009.47
2018-07-07T00:26:05.293Z,1009.48
2018-07-07T00:27:05.288Z,1009.50
2018-07-07T00:28:05.274Z,1009.48
2018-07-07T00:29:05.278Z,1009.52
2018-07-07T00:30:05.253Z,1009.55
2018-07-07T00:31:05.255Z,1009.53
2018-07-07T00:32:05.292Z,1009.52
2018-07-07T00:33:05.262Z,1009.53
2018-07-07T00:34:05.210Z,1009.56
2018-07-07T00:35:05.214Z,1009.60
2018-07-07T00:36:05.184Z,1009.60
2018-07-07T00:37:05.173Z,1009.60
2018-07-07T00:38:05.177Z,1009.57
2018-07-07T00:39:05.165Z,1009.58
2018-07-07T00:40:05.142Z,1009.59
2018-07-07T00:41:05.132Z,1009.66
2018-07-07T00:42:05.118Z,1009.64
2018-07-07T00:43:05.110Z,1009.62
2018-07-07T00:44:05.113Z,1009.63
2018-07-07T00:45:05.088Z,1009.67
2018-07-07T00:46:05.073Z,1009.63
2018-07-07T00:47:05.064Z,1009.64
2018-07-07T00:48:05.054Z,1009.68
2018-07-07T00:49:05.091Z,1009.66
2018-07-07T00:50:05.030Z,1009.67
2018-07-07T00:51:05.021Z,1009.66
2018-07-07T00:52:05.036Z,1009.67
2018-07-07T00:53:05.001Z,1009.65
2018-07-07T00:54:04.986Z,1009.65
2018-07-07T00:55:04.997Z,1009.66
2018-07-07T00:56:05.019Z,1009.65
2018-07-07T00:57:04.986Z,1009.65
2018-07-07T00:58:04.969Z,1009.60
2018-07-07T00:59:04.934Z,1009.62
2018-07-07T01:00:04.926Z,1009.61
2018-07-07T01:01:04.938Z,1009.64
2018-07-07T01:02:04.920Z,1009.65
2018-07-07T01:03:04.887Z,1009.69
2018-07-07T01:04:04.877Z,1009.67
2018-07-07T01:05:04.868Z,1009.67
2018-07-07T01:06:04.858Z,1009.65
2018-07-07T01:07:04.847Z,1009.68
2018-07-07T01:08:04.850Z,1009.71
2018-07-07T01:09:04.822Z,1009.69
2018-07-07T01:10:04.816Z,1009.70
2018-07-07T01:11:04.801Z,1009.72
2018-07-07T01:12:04.791Z,1009.70
2018-07-07T01:13:04.799Z,1009.73
2018-07-07T01:14:04.807Z,1009.71
2018-07-07T01:15:04.757Z,1009.76
2018-07-07T01:16:04.746Z,1009.75
2018-07-07T01:17:04.737Z,1009.77
2018-07-07T01:18:04.724Z,1009.75
2018-07-07T01:19:04.730Z,1009.75
2018-07-07T01:20:04.753Z,1009.70
2018-07-07T01:21:04.704Z,1009.74
2018-07-07T01:22:04.683Z,1009.73
2018-07-07T01:23:04.673Z,1009.72
2018-07-07T01:24:04.676Z,1009.71
2018-07-07T01:25:04.652Z,1009.72
2018-07-07T01:26:04.694Z,1009.71
2018-07-07T01:27:04.629Z,1009.75
2018-07-07T01:28:04.614Z,1009.73
2018-07-07T01:29:04.629Z,1009.73
2018-07-07T01:30:04.593Z,1009.70
2018-07-07T01:31:04.584Z,1009.75
2018-07-07T01:32:04.573Z,1009.71
2018-07-07T01:33:04.563Z,1009.73
2018-07-07T01:34:04.594Z,1009.72
2018-07-07T01:35:04.595Z,1009.71
2018-07-07T01:36:04.528Z,1009.72
2018-07-07T01:37:04.516Z,1009.73
2018-07-07T01:38:04.509Z,1009.71
2018-07-07T01:39:04.498Z,1009.70
2018-07-07T01:40:04.490Z,1009.71
2018-07-07T01:41:04.489Z,1009.74
2018-07-07T01:42:04.461Z,1009.75
2018-07-07T01:43:04.473Z,1009.79
2018-07-07T01:44:04.445Z,1009.77
2018-07-07T01:45:04.458Z,1009.77
2018-07-07T01:46:04.419Z,1009.77
2018-07-07T01:47:04.412Z,1009.78
2018-07-07T01:48:04.401Z,1009.76
2018-07-07T01:49:04.386Z,1009.77
2018-07-07T01:50:04.376Z,1009.79
2018-07-07T01:51:04.377Z,1009.74
2018-07-07T01:52:04.375Z,1009.78
2018-07-07T01:53:04.343Z,1009.77
2018-07-07T01:54:04.334Z,1009.81
2018-07-07T01:55:04.344Z,1009.81
2018-07-07T01:56:04.313Z,1009.79
2018-07-07T01:57:04.299Z,1009.74
2018-07-07T01:58:04.292Z,1009.76
2018-07-07T01:59:04.278Z,1009.76
2018-07-07T02:00:04.267Z,1009.77
2018-07-07T02:01:04.279Z,1009.76
2018-07-07T02:02:04.247Z,1009.78
2018-07-07T02:03:04.304Z,1009.79
2018-07-07T02:04:04.259Z,1009.79
2018-07-07T02:05:04.214Z,1009.80
2018-07-07T02:06:04.205Z,1009.78
2018-07-07T02:07:04.207Z,1009.77
2018-07-07T02:08:04.182Z,1009.80
2018-07-07T02:09:04.169Z,1009.78
2018-07-07T02:10:04.157Z,1009.75
2018-07-07T02:11:04.163Z,1009.73
2018-07-07T02:12:04.190Z,1009.73
2018-07-07T02:13:04.129Z,1009.78
2018-07-07T02:14:04.159Z,1009.73
2018-07-07T02:15:04.104Z,1009.79
2018-07-07T02:16:04.112Z,1009.73
2018-07-07T02:17:04.083Z,1009.72
2018-07-07T02:18:04.074Z,1009.77
2018-07-07T02:19:04.060Z,1009.79
2018-07-07T02:20:04.050Z,1009.82
2018-07-07T02:21:04.038Z,1009.80
2018-07-07T02:22:04.039Z,1009.82
2018-07-07T02:23:04.017Z,1009.80
2018-07-07T02:24:04.009Z,1009.80
2018-07-07T02:25:03.997Z,1009.84
2018-07-07T02:26:03.986Z,1009.81
2018-07-07T02:27:03.986Z,1009.84
2018-07-07T02:28:03.969Z,1009.86
2018-07-07T02:29:03.974Z,1009.85
2018-07-07T02:30:03.942Z,1009.87
2018-07-07T02:31:03.934Z,1009.84
2018-07-07T02:32:03.918Z,1009.84
2018-07-07T02:33:03.925Z,1009.79
2018-07-07T02:34:03.901Z,1009.81
2018-07-07T02:35:03.893Z,1009.83
2018-07-07T02:36:03.879Z,1009.82
2018-07-07T02:37:03.996Z,1009.88
2018-07-07T02:38:03.858Z,1009.83
2018-07-07T02:39:03.843Z,1009.83
2018-07-07T02:40:03.869Z,1009.85
2018-07-07T02:41:03.878Z,1009.85
2018-07-07T02:42:03.857Z,1009.84
2018-07-07T02:43:03.813Z,1009.84
2018-07-07T02:44:03.804Z,1009.87
2018-07-07T02:45:03.831Z,1009.82
2018-07-07T02:46:03.809Z,1009.81
2018-07-07T02:47:03.784Z,1009.84
2018-07-07T02:48:03.760Z,1009.83
2018-07-07T02:49:03.735Z,1009.86
2018-07-07T02:50:03.723Z,1009.89
2018-07-07T02:51:03.716Z,1009.91
2018-07-07T02:52:03.700Z,1009.87
2018-07-07T02:53:03.709Z,1009.90
2018-07-07T02:54:03.684Z,1009.87
2018-07-07T02:55:03.777Z,1009.92
2018-07-07T02:56:03.661Z,1009.91
2018-07-07T02:57:03.650Z,1009.89
2018-07-07T02:58:03.638Z,1009.92
2018-07-07T02:59:03.624Z,1009.91
2018-07-07T03:00:03.614Z,1009.91
2018-07-07T03:01:03.620Z,1009.89
2018-07-07T03:02:03.596Z,1009.91
2018-07-07T03:03:03.648Z,1009.87
2018-07-07T03:04:03.624Z,1009.93
2018-07-07T03:05:03.619Z,1009.90
2018-07-07T03:06:03.563Z,1009.93
2018-07-07T03:07:03.648Z,1009.91
2018-07-07T03:08:03.625Z,1009.91
2018-07-07T03:09:03.533Z,1009.92
2018-07-07T03:10:03.513Z,1009.90
2018-07-07T03:11:03.499Z,1009.95
2018-07-07T03:12:03.499Z,1009.96
2018-07-07T03:13:03.474Z,1009.98
2018-07-07T03:14:03.551Z,1009.99
2018-07-07T03:15:03.488Z,1009.99
2018-07-07T03:16:03.442Z,1010.04
2018-07-07T03:17:03.448Z,1010.10
2018-07-07T03:18:03.421Z,1010.06
2018-07-07T03:19:03.428Z,1010.10
2018-07-07T03:20:03.401Z,1010.06
2018-07-07T03:21:03.388Z,1010.05
2018-07-07T03:22:03.378Z,1010.07
2018-07-07T03:23:03.456Z,1010.02
2018-07-07T03:24:03.356Z,1010.02
2018-07-07T03:25:03.361Z,1010.03
2018-07-07T03:26:03.403Z,1010.06
2018-07-07T03:27:03.323Z,1010.10
2018-07-07T03:28:03.315Z,1010.12
2018-07-07T03:29:03.304Z,1010.06
2018-07-07T03:30:03.317Z,1010.10
2018-07-07T03:31:03.279Z,1010.12
2018-07-07T03:32:03.272Z,1010.09
2018-07-07T03:33:03.260Z,1010.12
2018-07-07T03:34:03.250Z,1010.14
2018-07-07T03:35:03.238Z,1010.09
2018-07-07T03:36:03.295Z,1010.12
2018-07-07T03:37:03.218Z,1010.14
2018-07-07T03:38:03.278Z,1010.13
2018-07-07T03:39:03.196Z,1010.16
2018-07-07T03:40:03.186Z,1010.16
2018-07-07T03:41:03.201Z,1010.11
2018-07-07T03:42:03.198Z,1010.15
2018-07-07T03:43:03.154Z,1010.18
2018-07-07T03:44:03.181Z,1010.21
2018-07-07T03:45:03.132Z,1010.24
2018-07-07T03:46:03.141Z,1010.24
2018-07-07T03:47:03.110Z,1010.24
2018-07-07T03:48:03.099Z,1010.26
2018-07-07T03:49:03.086Z,1010.30
2018-07-07T03:50:03.075Z,1010.28
2018-07-07T03:51:03.109Z,1010.29
2018-07-07T03:52:03.186Z,1010.28
2018-07-07T03:53:03.061Z,1010.33
2018-07-07T03:54:03.034Z,1010.33
2018-07-07T03:55:03.020Z,1010.33
2018-07-07T03:56:03.010Z,1010.31
2018-07-07T03:57:03.001Z,1010.33
2018-07-07T03:58:03.009Z,1010.36
2018-07-07T03:59:02.978Z,1010.34
2018-07-07T04:00:02.969Z,1010.37
2018-07-07T04:01:02.961Z,1010.38
2018-07-07T04:02:02.973Z,1010.40
2018-07-07T04:03:02.974Z,1010.43
2018-07-07T04:04:02.987Z,1010.41
2018-07-07T04:05:02.914Z,1010.43
2018-07-07T04:06:02.901Z,1010.42
2018-07-07T04:07:02.892Z,1010.42
2018-07-07T04:08:02.882Z,1010.49
2018-07-07T04:09:03.047Z,1010.48
2018-07-07T04:10:02.863Z,1010.50
2018-07-07T04:11:02.846Z,1010.47
2018-07-07T04:12:02.835Z,1010.46
2018-07-07T04:13:02.826Z,1010.47
2018-07-07T04:14:02.831Z,1010.48
2018-07-07T04:15:02.802Z,1010.48
2018-07-07T04:16:02.791Z,1010.49
2018-07-07T04:17:02.786Z,1010.50
2018-07-07T04:18:02.769Z,1010.53
2018-07-07T04:19:02.758Z,1010.52
2018-07-07T04:20:02.807Z,1010.52
2018-07-07T04:21:02.740Z,1010.48
2018-07-07T04:22:02.724Z,1010.47
2018-07-07T04:23:02.718Z,1010.57
2018-07-07T04:24:02.707Z,1010.56
2018-07-07T04:25:02.767Z,1010.56
2018-07-07T04:26:02.684Z,1010.56
2018-07-07T04:27:02.681Z,1010.61
2018-07-07T04:28:02.662Z,1010.54
2018-07-07T04:29:02.710Z,1010.57
2018-07-07T04:30:02.639Z,1010.57
2018-07-07T04:31:02.642Z,1010.55
2018-07-07T04:32:02.654Z,1010.52
2018-07-07T04:33:02.612Z,1010.51
2018-07-07T04:34:02.597Z,1010.52
2018-07-07T04:35:02.601Z,1010.54
2018-07-07T04:36:02.630Z,1010.52
2018-07-07T04:37:02.562Z,1010.49
2018-07-07T04:38:02.551Z,1010.50
2018-07-07T04:39:02.541Z,1010.49
2018-07-07T04:40:02.566Z,1010.47
2018-07-07T04:41:02.585Z,1010.47
2018-07-07T04:42:02.508Z,1010.51
2018-07-07T04:43:02.571Z,1010.46
2018-07-07T04:44:02.484Z,1010.50
2018-07-07T04:45:02.473Z,1010.49
2018-07-07T04:46:02.531Z,1010.51
2018-07-07T04:47:02.466Z,1010.48
2018-07-07T04:48:02.443Z,1010.53
2018-07-07T04:49:02.433Z,1010.53
2018-07-07T04:50:02.421Z,1010.53
2018-07-07T04:51:02.407Z,1010.54
2018-07-07T04:52:02.430Z,1010.55
2018-07-07T04:53:02.405Z,1010.56
2018-07-07T04:54:02.400Z,1010.51
2018-07-07T04:55:02.365Z,1010.56
2018-07-07T04:56:02.353Z,1010.58
2018-07-07T04:57:02.342Z,1010.60
2018-07-07T04:58:02.348Z,1010.63
2018-07-07T04:59:02.323Z,1010.66
2018-07-07T05:00:02.406Z,1010.64
2018-07-07T05:01:02.298Z,1010.68
2018-07-07T05:02:02.288Z,1010.66
2018-07-07T05:03:02.296Z,1010.70
2018-07-07T05:04:02.268Z,1010.69
2018-07-07T05:05:02.335Z,1010.68
2018-07-07T05:06:02.247Z,1010.70
2018-07-07T05:07:02.251Z,1010.71
2018-07-07T05:08:02.269Z,1010.74
2018-07-07T05:09:02.217Z,1010.69
2018-07-07T05:10:02.214Z,1010.76
2018-07-07T05:11:02.195Z,1010.72
2018-07-07T05:12:02.184Z,1010.77
2018-07-07T05:13:02.174Z,1010.76
2018-07-07T05:14:02.164Z,1010.73
2018-07-07T05:15:02.170Z,1010.78
2018-07-07T05:16:02.255Z,1010.79
2018-07-07T05:17:02.132Z,1010.82
2018-07-07T05:18:02.122Z,1010.84
2018-07-07T05:19:02.109Z,1010.86
2018-07-07T05:20:02.115Z,1010.89
2018-07-07T05:21:02.100Z,1010.90
2018-07-07T05:22:02.076Z,1010.89
2018-07-07T05:23:02.094Z,1010.91
2018-07-07T05:24:02.055Z,1010.88
2018-07-07T05:25:02.047Z,1010.86
2018-07-07T05:26:02.047Z,1010.88
2018-07-07T05:27:02.032Z,1010.90
2018-07-07T05:28:02.016Z,1010.87
2018-07-07T05:29:02.003Z,1010.85
2018-07-07T05:30:01.992Z,1010.85
2018-07-07T05:31:02.002Z,1010.86
2018-07-07T05:32:02.055Z,1010.83
2018-07-07T05:33:01.968Z,1010.81
2018-07-07T05:34:01.950Z,1010.86
2018-07-07T05:35:01.942Z,1010.87
2018-07-07T05:36:01.982Z,1010.88
2018-07-07T05:37:01.972Z,1010.89
2018-07-07T05:38:01.931Z,1010.90
2018-07-07T05:39:01.956Z,1010.90
2018-07-07T05:40:01.889Z,1010.88
2018-07-07T05:41:01.982Z,1010.93
2018-07-07T05:42:01.947Z,1010.92
2018-07-07T05:43:01.857Z,1010.87
2018-07-07T05:44:01.966Z,1010.89
2018-07-07T05:45:01.833Z,1010.91
2018-07-07T05:46:01.822Z,1010.89
2018-07-07T05:47:01.873Z,1010.94
2018-07-07T05:48:01.813Z,1010.89
2018-07-07T05:49:01.790Z,1010.92
2018-07-07T05:50:01.857Z,1010.91
2018-07-07T05:51:01.765Z,1010.87
2018-07-07T05:52:01.751Z,1010.96
2018-07-07T05:53:01.759Z,1010.91
2018-07-07T05:54:01.794Z,1010.93
2018-07-07T05:55:01.719Z,1010.90
2018-07-07T05:56:01.709Z,1010.89
2018-07-07T05:57:01.699Z,1010.90
2018-07-07T05:58:01.815Z,1010.88
2018-07-07T05:59:01.688Z,1010.91
2018-07-07T06:00:01.665Z,1010.90
2018-07-07T06:01:01.654Z,1010.91
2018-07-07T06:02:01.639Z,1010.91
2018-07-07T06:03:01.633Z,1010.93
2018-07-07T06:04:01.713Z,1010.94
2018-07-07T06:05:01.658Z,1010.90
2018-07-07T06:06:01.613Z,1010.91
2018-07-07T06:07:01.589Z,1010.95
2018-07-07T06:08:01.654Z,1010.95
2018-07-07T06:09:01.568Z,1011.02
2018-07-07T06:10:01.658Z,1011.00
2018-07-07T06:11:01.543Z,1010.96
2018-07-07T06:12:01.533Z,1010.99
2018-07-07T06:13:01.523Z,1011.01
2018-07-07T06:14:01.507Z,1010.96
2018-07-07T06:15:01.497Z,1011.00
2018-07-07T06:16:01.501Z,1010.99
2018-07-07T06:17:01.615Z,1011.02
2018-07-07T06:18:01.503Z,1011.00
2018-07-07T06:19:01.456Z,1011.02
2018-07-07T06:20:01.445Z,1011.05
2018-07-07T06:21:01.452Z,1011.01
2018-07-07T06:22:01.422Z,1011.02
2018-07-07T06:23:01.416Z,1011.04
2018-07-07T06:24:01.398Z,1011.04
2018-07-07T06:25:01.391Z,1011.00
2018-07-07T06:26:01.380Z,1011.05
2018-07-07T06:27:01.461Z,1011.00
2018-07-07T06:28:01.358Z,1010.98
2018-07-07T06:29:01.348Z,1010.95
2018-07-07T06:30:01.338Z,1010.96
2018-07-07T06:31:01.326Z,1011.01
2018-07-07T06:32:01.352Z,1010.98
2018-07-07T06:33:01.483Z,1010.99
2018-07-07T06:34:01.391Z,1010.96
2018-07-07T06:35:01.283Z,1011.03
2018-07-07T06:36:01.325Z,1011.00
2018-07-07T06:37:01.262Z,1010.97
2018-07-07T06:38:01.263Z,1010.99
2018-07-07T06:39:01.349Z,1011.01
2018-07-07T06:40:01.315Z,1010.97
2018-07-07T06:41:01.219Z,1010.97
2018-07-07T06:42:01.219Z,1010.96
2018-07-07T06:43:01.359Z,1010.94
2018-07-07T06:44:01.278Z,1010.96
2018-07-07T06:45:01.177Z,1010.97
2018-07-07T06:46:01.165Z,1010.93
2018-07-07T06:47:01.151Z,1010.97
2018-07-07T06:48:01.162Z,1010.93
2018-07-07T06:49:01.132Z,1010.92
2018-07-07T06:50:01.119Z,1010.98
2018-07-07T06:51:01.113Z,1010.95
2018-07-07T06:52:01.096Z,1010.99
2018-07-07T06:53:01.090Z,1010.99
2018-07-07T06:54:01.224Z,1010.99
2018-07-07T06:55:01.065Z,1010.96
2018-07-07T06:56:01.055Z,1010.99
2018-07-07T06:57:01.043Z,1011.03
2018-07-07T06:58:01.156Z,1010.99
2018-07-07T06:59:01.038Z,1010.97
2018-07-07T07:00:01.195Z,1011.00
2018-07-07T07:01:01.002Z,1010.97
2018-07-07T07:02:00.988Z,1011.01
2018-07-07T07:03:01.095Z,1011.01
2018-07-07T07:04:00.971Z,1010.99
2018-07-07T07:05:01.072Z,1011.01
2018-07-07T07:06:00.964Z,1011.05
2018-07-07T07:07:00.934Z,1010.98
2018-07-07T07:08:00.925Z,1011.03
2018-07-07T07:09:00.931Z,1011.15
2018-07-07T07:10:00.903Z,1011.08
2018-07-07T07:11:01.048Z,1011.21
2018-07-07T07:12:01.025Z,1011.14
2018-07-07T07:13:00.991Z,1011.13
2018-07-07T07:14:00.935Z,1011.21
2018-07-07T07:15:00.983Z,1011.19
2018-07-07T07:16:00.838Z,1011.17
2018-07-07T07:17:00.980Z,1011.32
2018-07-07T07:18:00.817Z,1011.35
2018-07-07T07:19:00.806Z,1011.22
2018-07-07T07:20:00.807Z,1011.28
2018-07-07T07:21:00.783Z,1011.15
2018-07-07T07:22:00.785Z,1011.32
2018-07-07T07:23:00.774Z,1011.35
2018-07-07T07:24:00.766Z,1011.32
2018-07-07T07:25:00.742Z,1011.21
2018-07-07T07:26:00.773Z,1011.29
2018-07-07T07:27:00.721Z,1011.19
2018-07-07T07:28:00.711Z,1011.28
2018-07-07T07:29:00.740Z,1011.44
2018-07-07T07:30:00.687Z,1011.32
2018-07-07T07:31:00.733Z,1011.26
2018-07-07T07:32:00.666Z,1011.23
2018-07-07T07:33:00.709Z,1011.31
2018-07-07T07:34:00.759Z,1011.45
2018-07-07T07:35:00.650Z,1011.39
2018-07-07T07:36:00.654Z,1011.36
2018-07-07T07:37:00.634Z,1011.48
2018-07-07T07:38:00.603Z,1011.48
2018-07-07T07:39:00.659Z,1011.44
2018-07-07T07:40:00.583Z,1011.42
2018-07-07T07:41:00.579Z,1011.42
2018-07-07T07:42:00.709Z,1011.42
2018-07-07T07:43:00.645Z,1011.33
2018-07-07T07:44:00.538Z,1011.33
2018-07-07T07:45:00.540Z,1011.47
2018-07-07T07:46:00.518Z,1011.44
2018-07-07T07:47:00.565Z,1011.46
2018-07-07T07:48:00.512Z,1011.48
2018-07-07T07:49:00.558Z,1011.42
2018-07-07T07:50:00.474Z,1011.28
2018-07-07T07:51:00.489Z,1011.42
2018-07-07T07:52:00.477Z,1011.29
2018-07-07T07:53:00.441Z,1011.52
2018-07-07T07:54:00.430Z,1011.40
2018-07-07T07:55:00.565Z,1011.44
2018-07-07T07:56:00.415Z,1011.32
2018-07-07T07:57:00.546Z,1011.46
2018-07-07T07:58:00.402Z,1011.33
2018-07-07T07:59:00.448Z,1011.33
2018-07-07T08:00:00.367Z,1011.34
2018-07-07T08:01:00.373Z,1011.43
2018-07-07T08:02:00.346Z,1011.52
2018-07-07T08:03:00.353Z,1011.38
2018-07-07T08:04:00.343Z,1011.46
2018-07-07T08:05:00.435Z,1011.34
2018-07-07T08:06:00.305Z,1011.37
2018-07-07T08:07:00.425Z,1011.35
2018-07-07T08:08:00.397Z,1011.28
2018-07-07T08:09:00.276Z,1011.27
2018-07-07T08:10:00.375Z,1011.24
2018-07-07T08:11:00.253Z,1011.26
2018-07-07T08:12:00.244Z,1011.29
2018-07-07T08:13:00.406Z,1011.26
2018-07-07T08:14:00.475Z,1011.26
2018-07-07T08:15:00.439Z,1011.33
2018-07-07T08:16:00.199Z,1011.33
2018-07-07T08:17:00.188Z,1011.36
2018-07-07T08:18:00.312Z,1011.29
2018-07-07T08:19:00.187Z,1011.50
2018-07-07T08:20:00.156Z,1011.45
2018-07-07T08:21:00.146Z,1011.40
2018-07-07T08:22:00.139Z,1011.31
2018-07-07T08:23:00.218Z,1011.31
2018-07-07T08:24:00.114Z,1011.38
2018-07-07T08:25:00.119Z,1011.48
2018-07-07T08:26:00.211Z,1011.50
2018-07-07T08:27:00.104Z,1011.59
2018-07-07T08:28:00.075Z,1011.37
2018-07-07T08:29:00.065Z,1011.57
2018-07-07T08:30:00.062Z,1011.61
2018-07-07T08:31:00.044Z,1011.60
2018-07-07T08:32:00.033Z,1011.50
2018-07-07T08:33:00.132Z,1011.36
2018-07-07T08:34:00.118Z,1011.63
2018-07-07T08:35:00.002Z,1011.53
2018-07-07T08:35:59.991Z,1011.55
2018-07-07T08:37:00.056Z,1011.56
2018-07-07T08:38:00.011Z,1011.53
2018-07-07T08:38:59.960Z,1011.54
2018-07-07T08:39:59.951Z,1011.53
2018-07-07T08:40:59.943Z,1011.45
2018-07-07T08:42:00.046Z,1011.52
2018-07-07T08:42:59.919Z,1011.55
2018-07-07T08:43:59.921Z,1011.56
2018-07-07T08:44:59.898Z,1011.60
2018-07-07T08:46:00.060Z,1011.65
2018-07-07T08:46:59.876Z,1011.62
2018-07-07T08:47:59.867Z,1011.65
2018-07-07T08:48:59.967Z,1011.62
2018-07-07T08:49:59.911Z,1011.60
2018-07-07T08:50:59.840Z,1011.60
2018-07-07T08:51:59.857Z,1011.62
2018-07-07T08:52:59.818Z,1011.31
2018-07-07T08:53:59.804Z,1011.53
2018-07-07T08:54:59.811Z,1011.34
2018-07-07T08:55:59.786Z,1011.66
2018-07-07T08:56:59.771Z,1011.61
2018-07-07T08:57:59.762Z,1011.67
2018-07-07T08:58:59.758Z,1011.26
2018-07-07T08:59:59.767Z,1011.53
2018-07-07T09:00:59.734Z,1011.34
2018-07-07T09:01:59.722Z,1011.39
2018-07-07T09:02:59.846Z,1011.65
2018-07-07T09:03:59.704Z,1011.65
2018-07-07T09:04:59.690Z,1011.69
2018-07-07T09:05:59.698Z,1011.71
2018-07-07T09:06:59.671Z,1011.62
2018-07-07T09:07:59.660Z,1011.40
2018-07-07T09:08:59.652Z,1011.67
2018-07-07T09:09:59.640Z,1011.55
2018-07-07T09:10:59.645Z,1011.71
2018-07-07T09:11:59.703Z,1011.73
2018-07-07T09:12:59.610Z,1011.70
2018-07-07T09:13:59.699Z,1011.71
2018-07-07T09:14:59.588Z,1011.34
2018-07-07T09:15:59.595Z,1011.31
2018-07-07T09:16:59.566Z,1011.25
2018-07-07T09:17:59.687Z,1011.62
2018-07-07T09:18:59.545Z,1011.66
2018-07-07T09:19:59.536Z,1011.68
2018-07-07T09:20:59.546Z,1011.71
2018-07-07T09:21:59.517Z,1011.27
2018-07-07T09:22:59.507Z,1011.11
2018-07-07T09:23:59.495Z,1011.19
2018-07-07T09:24:59.485Z,1011.57
2018-07-07T09:25:59.473Z,1011.54
2018-07-07T09:26:59.481Z,1011.60
2018-07-07T09:27:59.454Z,1011.59
2018-07-07T09:28:59.441Z,1011.62
2018-07-07T09:29:59.431Z,1011.27
2018-07-07T09:30:59.506Z,1011.35
2018-07-07T09:31:59.426Z,1011.62
2018-07-07T09:32:59.403Z,1011.43
2018-07-07T09:33:59.438Z,1011.63
2018-07-07T09:34:59.379Z,1011.58
2018-07-07T09:35:59.371Z,1011.59
2018-07-07T09:36:59.358Z,1011.38
2018-07-07T09:37:59.362Z,1011.63
2018-07-07T09:38:59.338Z,1011.58
2018-07-07T09:39:59.327Z,1011.54
2018-07-07T09:40:59.317Z,1011.56
2018-07-07T09:41:59.349Z,1011.54
2018-07-07T09:42:59.300Z,1011.54
2018-07-07T09:43:59.342Z,1011.55
2018-07-07T09:44:59.283Z,1011.52
2018-07-07T09:45:59.269Z,1011.48
2018-07-07T09:46:59.418Z,1011.51
2018-07-07T09:47:59.264Z,1011.49
2018-07-07T09:48:59.282Z,1011.52
2018-07-07T09:49:59.229Z,1011.54
2018-07-07T09:50:59.229Z,1011.53
2018-07-07T09:51:59.205Z,1011.61
2018-07-07T09:52:59.197Z,1011.55
2018-07-07T09:53:59.280Z,1011.55
2018-07-07T09:54:59.194Z,1011.54
2018-07-07T09:55:59.169Z,1011.57
2018-07-07T09:56:59.161Z,1011.61
2018-07-07T09:57:59.148Z,1011.55
2018-07-07T09:58:59.311Z,1011.57
2018-07-07T09:59:59.127Z,1011.62
2018-07-07T10:00:59.134Z,1011.57
2018-07-07T10:01:59.271Z,1011.62
2018-07-07T10:02:59.099Z,1011.59
2018-07-07T10:03:59.185Z,1011.63
2018-07-07T10:04:59.075Z,1011.65
2018-07-07T10:05:59.219Z,1011.67
2018-07-07T10:06:59.060Z,1011.67
2018-07-07T10:07:59.046Z,1011.62
2018-07-07T10:08:59.040Z,1011.20
2018-07-07T10:09:59.026Z,1011.68
2018-07-07T10:10:59.018Z,1011.73
2018-07-07T10:11:59.025Z,1011.58
2018-07-07T10:12:59.017Z,1011.09
2018-07-07T10:13:59.078Z,1011.64
2018-07-07T10:14:58.975Z,1011.53
2018-07-07T10:15:58.966Z,1011.57
2018-07-07T10:16:59.043Z,1011.68
2018-07-07T10:17:59.023Z,1011.11
2018-07-07T10:18:59.058Z,1011.60
2018-07-07T10:19:58.925Z,1011.61
2018-07-07T10:20:59.025Z,1011.55
2018-07-07T10:21:58.911Z,1011.53
2018-07-07T10:22:58.976Z,1011.57
2018-07-07T10:23:58.898Z,1011.56
2018-07-07T10:24:58.895Z,1011.34
2018-07-07T10:25:58.983Z,1011.06
2018-07-07T10:26:58.855Z,1011.61
2018-07-07T10:27:58.842Z,1011.50
2018-07-07T10:28:58.867Z,1011.50
2018-07-07T10:29:58.824Z,1011.62
2018-07-07T10:30:58.812Z,1011.58
2018-07-07T10:31:58.806Z,1011.56
2018-07-07T10:32:58.921Z,1011.41
2018-07-07T10:33:58.787Z,1011.59
2018-07-07T10:34:58.774Z,1011.58
2018-07-07T10:35:58.767Z,1011.62
2018-07-07T10:36:58.759Z,1011.59
2018-07-07T10:37:58.776Z,1011.56
2018-07-07T10:38:58.739Z,1011.54
2018-07-07T10:39:58.741Z,1011.52
2018-07-07T10:40:58.833Z,1011.56
2018-07-07T10:41:58.706Z,1011.50
2018-07-07T10:42:58.694Z,1011.56
2018-07-07T10:43:58.703Z,1011.58
2018-07-07T10:44:58.678Z,1011.56
2018-07-07T10:45:58.825Z,1011.56
2018-07-07T10:46:58.658Z,1011.56
2018-07-07T10:47:58.647Z,1011.54
2018-07-07T10:48:58.807Z,1011.58
2018-07-07T10:49:58.639Z,1011.54
2018-07-07T10:50:58.634Z,1011.59
2018-07-07T10:51:58.608Z,1011.50
2018-07-07T10:52:58.600Z,1011.58
2018-07-07T10:53:58.590Z,1011.49
2018-07-07T10:54:58.580Z,1011.52
2018-07-07T10:55:58.566Z,1011.50
2018-07-07T10:56:58.568Z,1011.53
2018-07-07T10:57:58.553Z,1011.54
2018-07-07T10:58:58.680Z,1011.58
2018-07-07T10:59:58.671Z,1011.57
2018-07-07T11:00:58.520Z,1011.56
2018-07-07T11:01:58.528Z,1011.55
2018-07-07T11:02:58.500Z,1011.65
2018-07-07T11:03:58.487Z,1011.58
2018-07-07T11:04:58.483Z,1011.59
2018-07-07T11:05:58.475Z,1011.61
2018-07-07T11:06:58.461Z,1011.58
2018-07-07T11:07:58.474Z,1011.59
2018-07-07T11:08:58.449Z,1011.59
2018-07-07T11:09:58.433Z,1011.54
2018-07-07T11:10:58.428Z,1011.54
2018-07-07T11:11:58.502Z,1011.59
2018-07-07T11:12:58.405Z,1011.51
2018-07-07T11:13:58.406Z,1011.52
2018-07-07T11:14:58.381Z,1011.51
2018-07-07T11:15:58.377Z,1011.53
2018-07-07T11:16:58.386Z,1011.56
2018-07-07T11:17:58.354Z,1011.51
2018-07-07T11:18:58.345Z,1011.52
2018-07-07T11:19:58.353Z,1011.47
2018-07-07T11:20:58.403Z,1011.50
2018-07-07T11:21:58.318Z,1011.55
2018-07-07T11:22:58.318Z,1011.54
2018-07-07T11:23:58.301Z,1011.54
2018-07-07T11:24:58.311Z,1011.45
2018-07-07T11:25:58.275Z,1011.50
2018-07-07T11:26:58.266Z,1011.62
2018-07-07T11:27:58.255Z,1011.69
2018-07-07T11:28:58.248Z,1011.62
2018-07-07T11:29:58.239Z,1011.55
2018-07-07T11:30:58.267Z,1011.58
2018-07-07T11:31:58.215Z,1011.58
2018-07-07T11:32:58.207Z,1011.54
2018-07-07T11:33:58.306Z,1011.57
2018-07-07T11:34:58.246Z,1011.59
2018-07-07T11:35:58.183Z,1011.61
2018-07-07T11:36:58.263Z,1011.56
2018-07-07T11:37:58.299Z,1011.57
2018-07-07T11:38:58.269Z,1011.57
2018-07-07T11:39:58.189Z,1011.59
2018-07-07T11:40:58.167Z,1011.59
2018-07-07T11:41:58.139Z,1011.65
2018-07-07T11:42:58.108Z,1011.61
2018-07-07T11:43:58.102Z,1011.58
2018-07-07T11:44:58.158Z,1011.58
2018-07-07T11:45:58.081Z,1011.55
2018-07-07T11:46:58.073Z,1011.51
2018-07-07T11:47:58.136Z,1011.46
2018-07-07T11:48:58.054Z,1011.46
2018-07-07T11:49:58.090Z,1011.58
2018-07-07T11:50:58.102Z,1011.44
2018-07-07T11:51:58.089Z,1011.46
2018-07-07T11:52:58.013Z,1011.52
2018-07-07T11:53:58.036Z,1011.44
2018-07-07T11:54:58.028Z,1011.49
2018-07-07T11:55:58.038Z,1011.44
2018-07-07T11:56:57.987Z,1011.51
2018-07-07T11:57:58.063Z,1011.52
2018-07-07T11:58:57.953Z,1011.48
2018-07-07T11:59:57.942Z,1011.47
2018-07-07T12:00:57.932Z,1011.46
2018-07-07T12:01:58.016Z,1011.47
2018-07-07T12:02:57.912Z,1011.50
2018-07-07T12:03:57.906Z,1011.45
2018-07-07T12:04:57.897Z,1011.41